Impacts METAR Board INFO
IDs:

KSTL - St Louis/Lambert Int, MO, US

Updated at: 0657 UTC 19 Nov 2017
Potential Impact None Slight Moderate High
Time18/18Z 18/19Z 18/20Z 18/21Z 18/22Z 18/23Z 19/00Z 19/01Z 19/02Z 19/03Z 19/04Z 19/05Z 19/06Z
VIS10 3 2 6 10 10 10 10 10 10 10 10 10
CIG11 18 13 15 15 18 -- -- -- -- -- -- --
CoverOVCOVCOVCOVCOVCOVCFEWFEWCLRCLRCLRFEWCLR
FltCatMVFRMVFRIFRMVFRMVFRMVFRVFRVFRVFRVFRVFRVFRVFR
WX---RA BRRA BR-RA BR------------------
WDir320330320310310300300290300300310310310
WSpd23 17 16 14 15 11 11 10 10 12 13 20 12
WGst31 27 27 20 21 19 19 -- -- 21 22 27 23
Raw hourly METARs
KSTL 181751Z 32023G31KT 10SM OVC011 08/06 A2950 RMK AO2 PK WND 33033/1722 RAE47 SLP989 P0000 60000 T00780056 10222 20078 51054
KSTL 181851Z 33017G27KT 3SM -RA BR FEW008 OVC018 07/06 A2956 RMK AO2 PK WND 34032/1824 RAB26 SLP008 P0002 T00670056
KSTL 181951Z 32016G27KT 2SM RA BR BKN013 OVC020 04/03 A2966 RMK AO2 PK WND 32034/1936 SLP043 P0007 T00440033
KSTL 182051Z 31014G20KT 6SM -RA BR SCT010 OVC015 05/04 A2973 RMK AO2 PK WND 33027/2023 PRESRR SLP064 P0012 60021 T00500044 53073
KSTL 182151Z 31015G21KT 10SM SCT010 OVC015 06/05 A2977 RMK AO2 RAE43 SLP079 P0003 T00610050 $
KSTL 182251Z 30011G19KT 10SM OVC018 07/05 A2982 RMK AO2 SLP096 T00670050 $
KSTL 182351Z 30011G19KT 10SM FEW018 FEW027 06/03 A2987 RMK AO2 SLP113 60024 T00610028 10078 20044 53047 $
KSTL 190051Z 29010KT 10SM FEW200 05/02 A2991 RMK AO2 SLP127 T00500017 $
KSTL 190151Z 30010KT 10SM CLR 06/01 A2994 RMK AO2 SLP136 T00560011 $
KSTL 190251Z 30012G21KT 10SM CLR 05/01 A2997 RMK AO2 SLP147 T00500006 51035 $
KSTL 190351Z 31013G22KT 10SM CLR 05/00 A3000 RMK AO2 SLP160 T00500000 $
KSTL 190451Z 31020G27KT 10SM FEW025 04/M02 A3002 RMK AO2 PK WND 31029/0420 SLP171 T00441017 $
KSTL 190551Z 31012G23KT 10SM CLR 03/M03 A3007 RMK AO2 SLP186 T00331028 10061 20033 402220033 53031 $